sensor_id;sensor_type;location;lat;lon;timestamp;pressure;altitude;pressure_sealevel;temperature;humidity
21185;BME280;18176;49.502;11.754;2023-02-26T00:02:20;96270.97;;;-0.95;81.48
21185;BME280;18176;49.502;11.754;2023-02-26T00:06:22;96279.22;;;-0.91;80.76
21185;BME280;18176;49.502;11.754;2023-02-26T00:10:27;96282.06;;;-1.01;80.76
21185;BME280;18176;49.502;11.754;2023-02-26T00:14:28;96286.84;;;-1.12;81.09
21185;BME280;18176;49.502;11.754;2023-02-26T00:18:32;96294.31;;;-1.09;81.12
21185;BME280;18176;49.502;11.754;2023-02-26T00:22:34;96298.38;;;-1.07;81.21
21185;BME280;18176;49.502;11.754;2023-02-26T00:26:38;96297.09;;;-1.11;81.21
21185;BME280;18176;49.502;11.754;2023-02-26T00:30:40;96307.22;;;-1.24;81.81
21185;BME280;18176;49.502;11.754;2023-02-26T00:34:46;96308.63;;;-1.36;82.10
21185;BME280;18176;49.502;11.754;2023-02-26T00:39:03;96299.63;;;-1.56;82.73
21185;BME280;18176;49.502;11.754;2023-02-26T00:43:11;96317.53;;;-1.61;83.20
21185;BME280;18176;49.502;11.754;2023-02-26T00:47:27;96312.81;;;-1.66;83.21
21185;BME280;18176;49.502;11.754;2023-02-26T00:51:44;96320.97;;;-1.77;84.06
21185;BME280;18176;49.502;11.754;2023-02-26T00:55:50;96323.47;;;-1.53;84.35
21185;BME280;18176;49.502;11.754;2023-02-26T00:59:51;96322.88;;;-1.32;83.85
21185;BME280;18176;49.502;11.754;2023-02-26T01:03:55;96331.22;;;-1.14;83.14
21185;BME280;18176;49.502;11.754;2023-02-26T01:08:11;96328.84;;;-1.01;82.96
21185;BME280;18176;49.502;11.754;2023-02-26T01:12:14;96328.94;;;-0.86;81.97
21185;BME280;18176;49.502;11.754;2023-02-26T01:16:24;96325.09;;;-0.76;81.00
21185;BME280;18176;49.502;11.754;2023-02-26T01:20:35;96323.88;;;-0.65;80.33
21185;BME280;18176;49.502;11.754;2023-02-26T01:24:42;96319.56;;;-0.73;80.70
21185;BME280;18176;49.502;11.754;2023-02-26T01:28:46;96325.34;;;-0.62;80.31
21185;BME280;18176;49.502;11.754;2023-02-26T01:32:56;96322.03;;;-0.56;79.92
21185;BME280;18176;49.502;11.754;2023-02-26T01:37:11;96323.81;;;-0.57;79.49
21185;BME280;18176;49.502;11.754;2023-02-26T01:41:29;96324.19;;;-0.60;79.25
21185;BME280;18176;49.502;11.754;2023-02-26T01:45:34;96321.53;;;-0.75;79.69
21185;BME280;18176;49.502;11.754;2023-02-26T01:49:39;96326.84;;;-0.68;79.51
21185;BME280;18176;49.502;11.754;2023-02-26T01:53:40;96333.72;;;-0.75;79.72
21185;BME280;18176;49.502;11.754;2023-02-26T01:57:44;96334.22;;;-0.57;79.15
21185;BME280;18176;49.502;11.754;2023-02-26T02:01:46;96332.84;;;-0.67;79.06
21185;BME280;18176;49.502;11.754;2023-02-26T02:05:54;96335.09;;;-0.87;79.60
21185;BME280;18176;49.502;11.754;2023-02-26T02:09:55;96341.28;;;-1.11;80.44
21185;BME280;18176;49.502;11.754;2023-02-26T02:14:15;96334.88;;;-1.31;80.50
21185;BME280;18176;49.502;11.754;2023-02-26T02:18:23;96344.69;;;-1.41;80.36
21185;BME280;18176;49.502;11.754;2023-02-26T02:22:50;96345.88;;;-1.52;80.35
21185;BME280;18176;49.502;11.754;2023-02-26T02:27:02;96357.31;;;-1.69;81.03
21185;BME280;18176;49.502;11.754;2023-02-26T02:31:14;96353.78;;;-1.84;82.13
21185;BME280;18176;49.502;11.754;2023-02-26T02:35:23;96367.91;;;-1.78;82.25
21185;BME280;18176;49.502;11.754;2023-02-26T02:39:29;96360.72;;;-1.68;82.20
21185;BME280;18176;49.502;11.754;2023-02-26T02:43:35;96365.81;;;-1.44;81.55
21185;BME280;18176;49.502;11.754;2023-02-26T02:47:43;96372.91;;;-1.30;81.42
21185;BME280;18176;49.502;11.754;2023-02-26T02:51:53;96374.84;;;-1.32;81.23
21185;BME280;18176;49.502;11.754;2023-02-26T02:56:01;96375.88;;;-1.41;80.88
21185;BME280;18176;49.502;11.754;2023-02-26T03:00:11;96376.91;;;-1.58;81.04
21185;BME280;18176;49.502;11.754;2023-02-26T03:04:16;96382.75;;;-1.56;81.96
21185;BME280;18176;49.502;11.754;2023-02-26T03:08:23;96385.06;;;-1.61;81.43
21185;BME280;18176;49.502;11.754;2023-02-26T03:12:32;96392.22;;;-1.79;82.50
21185;BME280;18176;49.502;11.754;2023-02-26T03:16:59;96394.53;;;-1.84;82.71
21185;BME280;18176;49.502;11.754;2023-02-26T03:21:13;96411.91;;;-1.93;82.89
21185;BME280;18176;49.502;11.754;2023-02-26T03:25:24;96411.44;;;-1.96;84.14
21185;BME280;18176;49.502;11.754;2023-02-26T03:29:38;96416.91;;;-1.83;84.08
21185;BME280;18176;49.502;11.754;2023-02-26T03:33:51;96418.50;;;-1.74;83.27
21185;BME280;18176;49.502;11.754;2023-02-26T03:38:02;96425.34;;;-1.81;82.99
21185;BME280;18176;49.502;11.754;2023-02-26T03:42:12;96433.63;;;-1.86;82.40
21185;BME280;18176;49.502;11.754;2023-02-26T03:46:27;96434.75;;;-1.88;83.05
21185;BME280;18176;49.502;11.754;2023-02-26T03:50:34;96437.69;;;-1.83;82.95
21185;BME280;18176;49.502;11.754;2023-02-26T03:55:09;96440.59;;;-1.86;82.01
21185;BME280;18176;49.502;11.754;2023-02-26T03:59:26;96451.78;;;-1.86;82.22
21185;BME280;18176;49.502;11.754;2023-02-26T04:03:57;96448.09;;;-1.99;82.69
21185;BME280;18176;49.502;11.754;2023-02-26T04:08:00;96457.16;;;-1.87;82.26
21185;BME280;18176;49.502;11.754;2023-02-26T04:12:06;96458.78;;;-1.86;81.84
21185;BME280;18176;49.502;11.754;2023-02-26T04:16:11;96464.47;;;-2.07;82.23
21185;BME280;18176;49.502;11.754;2023-02-26T04:20:12;96467.56;;;-2.03;82.57
21185;BME280;18176;49.502;11.754;2023-02-26T04:24:13;96468.22;;;-1.93;82.71
21185;BME280;18176;49.502;11.754;2023-02-26T04:28:17;96473.38;;;-1.77;81.83
21185;BME280;18176;49.502;11.754;2023-02-26T04:32:18;96484.38;;;-1.67;81.44
21185;BME280;18176;49.502;11.754;2023-02-26T04:36:20;96479.81;;;-1.49;80.74
21185;BME280;18176;49.502;11.754;2023-02-26T04:40:21;96478.84;;;-1.48;80.03
21185;BME280;18176;49.502;11.754;2023-02-26T04:44:26;96478.78;;;-1.32;79.28
21185;BME280;18176;49.502;11.754;2023-02-26T04:48:29;96482.72;;;-1.36;79.51
21185;BME280;18176;49.502;11.754;2023-02-26T04:52:30;96479.63;;;-1.31;78.73
21185;BME280;18176;49.502;11.754;2023-02-26T04:56:32;96484.00;;;-1.32;79.00
21185;BME280;18176;49.502;11.754;2023-02-26T05:00:36;96492.06;;;-1.19;78.33
21185;BME280;18176;49.502;11.754;2023-02-26T05:04:37;96496.28;;;-1.18;79.03
21185;BME280;18176;49.502;11.754;2023-02-26T05:08:38;96495.31;;;-1.17;79.04
21185;BME280;18176;49.502;11.754;2023-02-26T05:12:40;96502.09;;;-1.08;79.17
21185;BME280;18176;49.502;11.754;2023-02-26T05:16:43;96509.25;;;-1.10;79.37
21185;BME280;18176;49.502;11.754;2023-02-26T05:20:44;96510.06;;;-1.17;79.52
21185;BME280;18176;49.502;11.754;2023-02-26T05:24:44;96514.63;;;-1.19;80.15
21185;BME280;18176;49.502;11.754;2023-02-26T05:28:45;96515.94;;;-1.15;80.39
21185;BME280;18176;49.502;11.754;2023-02-26T05:32:48;96519.03;;;-1.20;80.89
21185;BME280;18176;49.502;11.754;2023-02-26T05:36:49;96514.53;;;-1.34;81.15
21185;BME280;18176;49.502;11.754;2023-02-26T05:40:50;96534.22;;;-1.48;82.06
21185;BME280;18176;49.502;11.754;2023-02-26T05:44:50;96537.59;;;-1.47;82.07
21185;BME280;18176;49.502;11.754;2023-02-26T05:48:54;96532.59;;;-1.57;82.56
21185;BME280;18176;49.502;11.754;2023-02-26T05:52:55;96540.53;;;-1.58;83.21
21185;BME280;18176;49.502;11.754;2023-02-26T05:56:56;96548.00;;;-1.63;83.72
21185;BME280;18176;49.502;11.754;2023-02-26T06:00:59;96555.66;;;-1.62;83.46
21185;BME280;18176;49.502;11.754;2023-02-26T06:05:03;96562.31;;;-1.67;84.00
21185;BME280;18176;49.502;11.754;2023-02-26T06:09:04;96575.94;;;-1.65;84.35
21185;BME280;18176;49.502;11.754;2023-02-26T06:13:05;96582.09;;;-1.58;84.37
21185;BME280;18176;49.502;11.754;2023-02-26T06:17:06;96572.84;;;-1.61;84.01
21185;BME280;18176;49.502;11.754;2023-02-26T06:21:10;96591.19;;;-1.54;84.38
21185;BME280;18176;49.502;11.754;2023-02-26T06:25:10;96592.84;;;-1.45;83.72
21185;BME280;18176;49.502;11.754;2023-02-26T06:29:11;96603.22;;;-1.45;84.43
21185;BME280;18176;49.502;11.754;2023-02-26T06:33:12;96611.97;;;-1.30;83.39
21185;BME280;18176;49.502;11.754;2023-02-26T06:37:16;96617.78;;;-1.12;82.87
21185;BME280;18176;49.502;11.754;2023-02-26T06:41:16;96623.94;;;-0.97;82.98
21185;BME280;18176;49.502;11.754;2023-02-26T06:45:19;96625.84;;;-0.83;82.96
21185;BME280;18176;49.502;11.754;2023-02-26T06:49:21;96643.72;;;-0.72;81.86
21185;BME280;18176;49.502;11.754;2023-02-26T06:53:25;96641.56;;;-0.60;81.88
21185;BME280;18176;49.502;11.754;2023-02-26T06:57:25;96657.13;;;-0.44;81.08
21185;BME280;18176;49.502;11.754;2023-02-26T07:01:26;96657.72;;;-0.34;81.31
21185;BME280;18176;49.502;11.754;2023-02-26T07:05:28;96667.63;;;-0.21;81.35
21185;BME280;18176;49.502;11.754;2023-02-26T07:09:31;96669.97;;;-0.04;81.29
21185;BME280;18176;49.502;11.754;2023-02-26T07:13:32;96677.50;;;0.14;82.02
21185;BME280;18176;49.502;11.754;2023-02-26T07:17:35;96685.22;;;0.30;81.02
21185;BME280;18176;49.502;11.754;2023-02-26T07:21:36;96686.94;;;0.46;80.15
21185;BME280;18176;49.502;11.754;2023-02-26T07:25:40;96695.28;;;0.41;79.88
21185;BME280;18176;49.502;11.754;2023-02-26T07:29:40;96693.22;;;0.59;79.95
21185;BME280;18176;49.502;11.754;2023-02-26T07:33:41;96708.75;;;0.76;78.46
21185;BME280;18176;49.502;11.754;2023-02-26T07:37:41;96710.13;;;0.63;77.83
21185;BME280;18176;49.502;11.754;2023-02-26T07:41:45;96715.00;;;0.66;78.03
21185;BME280;18176;49.502;11.754;2023-02-26T07:45:45;96720.47;;;0.71;77.54
21185;BME280;18176;49.502;11.754;2023-02-26T07:49:46;96718.78;;;0.79;77.94
21185;BME280;18176;49.502;11.754;2023-02-26T07:53:46;96731.59;;;1.11;77.80
21185;BME280;18176;49.502;11.754;2023-02-26T07:57:49;96727.63;;;1.52;75.98
21185;BME280;18176;49.502;11.754;2023-02-26T08:01:50;96731.63;;;1.77;73.41
21185;BME280;18176;49.502;11.754;2023-02-26T08:05:50;96745.50;;;1.92;72.63
21185;BME280;18176;49.502;11.754;2023-02-26T08:09:51;96746.28;;;2.07;71.39
21185;BME280;18176;49.502;11.754;2023-02-26T08:13:55;96735.19;;;2.35;70.86
21185;BME280;18176;49.502;11.754;2023-02-26T08:17:56;96759.53;;;2.71;70.11
21185;BME280;18176;49.502;11.754;2023-02-26T08:21:56;96770.09;;;2.63;68.86
21185;BME280;18176;49.502;11.754;2023-02-26T08:26:01;96759.88;;;2.82;67.93
21185;BME280;18176;49.502;11.754;2023-02-26T08:30:07;96755.31;;;3.12;67.64
21185;BME280;18176;49.502;11.754;2023-02-26T08:34:08;96764.22;;;3.18;65.11
21185;BME280;18176;49.502;11.754;2023-02-26T08:38:08;96774.44;;;2.92;65.76
21185;BME280;18176;49.502;11.754;2023-02-26T08:42:10;96790.81;;;2.79;66.72
21185;BME280;18176;49.502;11.754;2023-02-26T08:46:15;96788.09;;;2.87;67.14
21185;BME280;18176;49.502;11.754;2023-02-26T08:50:16;96805.47;;;2.59;66.93
21185;BME280;18176;49.502;11.754;2023-02-26T08:54:16;96804.44;;;2.74;68.07
21185;BME280;18176;49.502;11.754;2023-02-26T08:58:18;96811.00;;;2.85;67.14
21185;BME280;18176;49.502;11.754;2023-02-26T09:02:22;96811.47;;;3.10;65.68
21185;BME280;18176;49.502;11.754;2023-02-26T09:06:23;96813.47;;;3.08;65.36
21185;BME280;18176;49.502;11.754;2023-02-26T09:10:24;96816.38;;;2.98;64.50
21185;BME280;18176;49.502;11.754;2023-02-26T09:14:25;96817.75;;;3.36;63.82
21185;BME280;18176;49.502;11.754;2023-02-26T09:18:28;96836.19;;;3.07;62.62
21185;BME280;18176;49.502;11.754;2023-02-26T09:22:29;96838.72;;;3.15;63.85
21185;BME280;18176;49.502;11.754;2023-02-26T09:26:30;96831.84;;;3.14;64.07
21185;BME280;18176;49.502;11.754;2023-02-26T09:30:32;96832.44;;;2.95;63.26
21185;BME280;18176;49.502;11.754;2023-02-26T09:34:36;96849.63;;;2.83;64.87
21185;BME280;18176;49.502;11.754;2023-02-26T09:38:37;96851.16;;;2.77;65.39
21185;BME280;18176;49.502;11.754;2023-02-26T09:42:59;96856.19;;;2.94;65.92
21185;BME280;18176;49.502;11.754;2023-02-26T09:47:15;96860.31;;;3.38;62.68
21185;BME280;18176;49.502;11.754;2023-02-26T09:51:22;96875.44;;;3.22;61.89
21185;BME280;18176;49.502;11.754;2023-02-26T09:55:29;96884.22;;;3.14;63.31
21185;BME280;18176;49.502;11.754;2023-02-26T09:59:33;96882.34;;;2.94;63.79
21185;BME280;18176;49.502;11.754;2023-02-26T10:03:50;96895.38;;;2.87;62.42
21185;BME280;18176;49.502;11.754;2023-02-26T10:08:03;96897.69;;;3.32;62.65
21185;BME280;18176;49.502;11.754;2023-02-26T10:12:09;96868.28;;;3.30;62.78
21185;BME280;18176;49.502;11.754;2023-02-26T10:16:15;96900.81;;;3.21;64.05
21185;BME280;18176;49.502;11.754;2023-02-26T10:20:26;96910.50;;;3.06;66.34
21185;BME280;18176;49.502;11.754;2023-02-26T10:24:41;96915.75;;;2.92;66.80
21185;BME280;18176;49.502;11.754;2023-02-26T10:28:53;96913.47;;;3.03;65.62
21185;BME280;18176;49.502;11.754;2023-02-26T10:33:06;96928.78;;;3.21;64.39
21185;BME280;18176;49.502;11.754;2023-02-26T10:37:17;96929.47;;;3.29;63.30
21185;BME280;18176;49.502;11.754;2023-02-26T10:41:26;96933.19;;;3.20;62.59
21185;BME280;18176;49.502;11.754;2023-02-26T10:45:54;96939.22;;;3.35;60.86
21185;BME280;18176;49.502;11.754;2023-02-26T10:50:03;96936.31;;;3.45;61.45
21185;BME280;18176;49.502;11.754;2023-02-26T10:54:17;96944.13;;;3.38;61.58
21185;BME280;18176;49.502;11.754;2023-02-26T10:58:24;96934.56;;;3.16;62.05
21185;BME280;18176;49.502;11.754;2023-02-26T11:02:40;96942.59;;;3.86;60.41
21185;BME280;18176;49.502;11.754;2023-02-26T11:06:47;96919.94;;;4.55;57.26
21185;BME280;18176;49.502;11.754;2023-02-26T11:10:54;96928.03;;;4.94;55.18
21185;BME280;18176;49.502;11.754;2023-02-26T11:15:00;96933.41;;;5.94;53.97
21185;BME280;18176;49.502;11.754;2023-02-26T11:19:05;96921.88;;;5.82;51.86
21185;BME280;18176;49.502;11.754;2023-02-26T11:23:11;96917.97;;;5.65;49.57
21185;BME280;18176;49.502;11.754;2023-02-26T11:27:17;96919.75;;;5.51;51.74
21185;BME280;18176;49.502;11.754;2023-02-26T11:31:23;96886.88;;;5.75;51.52
21185;BME280;18176;49.502;11.754;2023-02-26T11:35:26;96910.44;;;7.06;47.27
21185;BME280;18176;49.502;11.754;2023-02-26T11:39:32;96906.38;;;7.10;45.16
21185;BME280;18176;49.502;11.754;2023-02-26T11:43:39;96905.34;;;7.55;44.03
21185;BME280;18176;49.502;11.754;2023-02-26T11:47:46;96907.28;;;7.35;44.96
21185;BME280;18176;49.502;11.754;2023-02-26T11:52:04;96901.59;;;8.32;43.19
21185;BME280;18176;49.502;11.754;2023-02-26T11:56:11;96898.06;;;9.65;41.27
21185;BME280;18176;49.502;11.754;2023-02-26T12:00:22;96878.72;;;10.82;37.65
21185;BME280;18176;49.502;11.754;2023-02-26T12:04:26;96896.94;;;8.95;40.58
21185;BME280;18176;49.502;11.754;2023-02-26T12:08:31;96863.22;;;7.04;44.02
21185;BME280;18176;49.502;11.754;2023-02-26T12:12:53;96915.63;;;6.22;47.18
21185;BME280;18176;49.502;11.754;2023-02-26T12:17:17;96907.75;;;5.96;48.33
21185;BME280;18176;49.502;11.754;2023-02-26T12:26:39;96903.69;;;6.40;46.08
21185;BME280;18176;49.502;11.754;2023-02-26T12:31:11;96911.56;;;5.87;47.88
21185;BME280;18176;49.502;11.754;2023-02-26T12:35:41;96908.78;;;5.35;48.95
21185;BME280;18176;49.502;11.754;2023-02-26T12:39:56;96918.25;;;4.82;51.47
21185;BME280;18176;49.502;11.754;2023-02-26T12:44:22;96925.28;;;4.13;52.27
21185;BME280;18176;49.502;11.754;2023-02-26T12:48:58;96912.69;;;4.57;51.46
21185;BME280;18176;49.502;11.754;2023-02-26T12:53:34;96904.47;;;5.81;48.54
21185;BME280;18176;49.502;11.754;2023-02-26T12:58:11;96917.81;;;6.78;47.19
21185;BME280;18176;49.502;11.754;2023-02-26T13:02:57;96914.78;;;6.61;45.91
21185;BME280;18176;49.502;11.754;2023-02-26T13:07:43;96914.19;;;5.87;46.91
21185;BME280;18176;49.502;11.754;2023-02-26T13:12:03;96933.63;;;6.52;45.94
21185;BME280;18176;49.502;11.754;2023-02-26T13:16:22;96923.97;;;7.16;45.56
21185;BME280;18176;49.502;11.754;2023-02-26T13:20:28;96936.81;;;5.75;52.78
21185;BME280;18176;49.502;11.754;2023-02-26T13:24:38;96940.09;;;4.82;55.10
21185;BME280;18176;49.502;11.754;2023-02-26T13:28:44;96902.69;;;4.40;54.63
21185;BME280;18176;49.502;11.754;2023-02-26T13:32:53;96932.53;;;5.07;52.09
21185;BME280;18176;49.502;11.754;2023-02-26T13:36:57;96927.72;;;5.11;50.09
21185;BME280;18176;49.502;11.754;2023-02-26T13:41:09;96935.22;;;5.87;49.64
21185;BME280;18176;49.502;11.754;2023-02-26T13:45:33;96925.47;;;6.99;46.68
21185;BME280;18176;49.502;11.754;2023-02-26T13:49:56;96926.97;;;6.36;48.51
21185;BME280;18176;49.502;11.754;2023-02-26T13:54:08;96944.88;;;5.67;48.01
21185;BME280;18176;49.502;11.754;2023-02-26T13:58:34;96941.88;;;5.23;48.75
21185;BME280;18176;49.502;11.754;2023-02-26T14:02:53;96954.69;;;5.39;48.43
21185;BME280;18176;49.502;11.754;2023-02-26T14:06:58;96964.13;;;4.58;51.54
21185;BME280;18176;49.502;11.754;2023-02-26T14:11:04;96974.69;;;3.74;55.25
21185;BME280;18176;49.502;11.754;2023-02-26T14:15:41;96986.41;;;3.06;64.43
21185;BME280;18176;49.502;11.754;2023-02-26T14:20:21;96978.53;;;2.77;65.87
21185;BME280;18176;49.502;11.754;2023-02-26T14:24:30;96979.72;;;2.60;66.02
21185;BME280;18176;49.502;11.754;2023-02-26T14:28:53;96984.06;;;2.82;66.98
21185;BME280;18176;49.502;11.754;2023-02-26T14:33:07;96986.94;;;4.30;62.69
21185;BME280;18176;49.502;11.754;2023-02-26T14:37:15;96980.78;;;6.01;55.86
21185;BME280;18176;49.502;11.754;2023-02-26T14:41:28;96981.63;;;7.50;52.16
21185;BME280;18176;49.502;11.754;2023-02-26T14:45:37;96984.03;;;6.68;46.30
21185;BME280;18176;49.502;11.754;2023-02-26T14:49:43;96994.28;;;4.96;49.41
21185;BME280;18176;49.502;11.754;2023-02-26T14:54:18;96997.63;;;4.56;50.81
21185;BME280;18176;49.502;11.754;2023-02-26T14:58:47;97004.44;;;5.06;50.87
21185;BME280;18176;49.502;11.754;2023-02-26T15:03:25;97001.00;;;4.71;50.10
21185;BME280;18176;49.502;11.754;2023-02-26T15:07:50;97026.97;;;3.61;52.98
21185;BME280;18176;49.502;11.754;2023-02-26T15:12:27;97034.31;;;3.21;55.28
21185;BME280;18176;49.502;11.754;2023-02-26T15:16:49;97036.59;;;3.24;55.68
21185;BME280;18176;49.502;11.754;2023-02-26T15:21:09;97041.25;;;3.43;56.35
21185;BME280;18176;49.502;11.754;2023-02-26T15:25:28;97031.16;;;3.40;57.32
21185;BME280;18176;49.502;11.754;2023-02-26T15:29:35;97034.41;;;3.42;54.81
21185;BME280;18176;49.502;11.754;2023-02-26T15:33:37;97035.84;;;3.30;54.98
21185;BME280;18176;49.502;11.754;2023-02-26T15:37:41;97038.84;;;3.78;55.04
21185;BME280;18176;49.502;11.754;2023-02-26T15:41:42;97057.13;;;4.49;52.32
21185;BME280;18176;49.502;11.754;2023-02-26T15:45:47;97059.47;;;4.65;50.74
21185;BME280;18176;49.502;11.754;2023-02-26T15:49:48;97071.09;;;3.78;51.81
21185;BME280;18176;49.502;11.754;2023-02-26T15:53:54;97069.25;;;3.28;53.78
21185;BME280;18176;49.502;11.754;2023-02-26T15:57:59;97081.38;;;3.15;55.79
21185;BME280;18176;49.502;11.754;2023-02-26T16:02:01;97090.75;;;3.68;54.88
21185;BME280;18176;49.502;11.754;2023-02-26T16:06:04;97094.09;;;4.12;52.69
21185;BME280;18176;49.502;11.754;2023-02-26T16:10:17;97096.06;;;4.10;52.43
21185;BME280;18176;49.502;11.754;2023-02-26T16:14:23;97086.69;;;4.01;52.23
21185;BME280;18176;49.502;11.754;2023-02-26T16:18:26;97101.31;;;4.10;52.28
21185;BME280;18176;49.502;11.754;2023-02-26T16:22:34;97101.44;;;3.87;52.37
21185;BME280;18176;49.502;11.754;2023-02-26T16:26:44;97108.81;;;3.33;53.48
21185;BME280;18176;49.502;11.754;2023-02-26T16:30:51;97115.72;;;2.97;55.09
21185;BME280;18176;49.502;11.754;2023-02-26T16:34:55;97137.44;;;2.83;54.90
21185;BME280;18176;49.502;11.754;2023-02-26T16:39:10;97142.22;;;2.57;55.67
21185;BME280;18176;49.502;11.754;2023-02-26T16:43:50;97115.69;;;2.14;56.58
21185;BME280;18176;49.502;11.754;2023-02-26T16:47:55;97172.38;;;1.83;58.31
21185;BME280;18176;49.502;11.754;2023-02-26T16:51:59;97182.22;;;1.65;59.39
21185;BME280;18176;49.502;11.754;2023-02-26T16:56:01;97194.28;;;1.66;59.92
21185;BME280;18176;49.502;11.754;2023-02-26T17:00:14;97195.94;;;1.59;60.77
21185;BME280;18176;49.502;11.754;2023-02-26T17:04:30;97207.09;;;1.45;61.73
21185;BME280;18176;49.502;11.754;2023-02-26T17:08:33;97214.25;;;1.51;63.51
21185;BME280;18176;49.502;11.754;2023-02-26T17:12:43;97221.44;;;1.41;66.34
21185;BME280;18176;49.502;11.754;2023-02-26T17:16:49;97223.94;;;1.26;66.43
21185;BME280;18176;49.502;11.754;2023-02-26T17:20:50;97224.41;;;1.30;67.21
21185;BME280;18176;49.502;11.754;2023-02-26T17:24:51;97217.56;;;1.29;66.41
21185;BME280;18176;49.502;11.754;2023-02-26T17:28:51;97229.63;;;1.22;65.04
21185;BME280;18176;49.502;11.754;2023-02-26T17:32:55;97233.53;;;1.02;65.52
21185;BME280;18176;49.502;11.754;2023-02-26T17:36:56;97230.91;;;0.86;64.76
21185;BME280;18176;49.502;11.754;2023-02-26T17:41:02;97239.09;;;0.83;64.69
21185;BME280;18176;49.502;11.754;2023-02-26T17:45:03;97242.47;;;0.67;64.46
21185;BME280;18176;49.502;11.754;2023-02-26T17:49:08;97256.75;;;0.47;65.55
21185;BME280;18176;49.502;11.754;2023-02-26T17:53:10;97251.38;;;0.40;65.81
21185;BME280;18176;49.502;11.754;2023-02-26T17:57:17;97266.00;;;0.33;66.27
21185;BME280;18176;49.502;11.754;2023-02-26T18:01:18;97274.41;;;0.19;67.50
21185;BME280;18176;49.502;11.754;2023-02-26T18:05:22;97270.53;;;0.23;68.26
21185;BME280;18176;49.502;11.754;2023-02-26T18:09:25;97263.00;;;0.12;68.77
21185;BME280;18176;49.502;11.754;2023-02-26T18:13:27;97271.94;;;0.10;69.96
21185;BME280;18176;49.502;11.754;2023-02-26T18:17:28;97273.53;;;0.03;70.92
21185;BME280;18176;49.502;11.754;2023-02-26T18:21:34;97273.97;;;-0.10;72.00
21185;BME280;18176;49.502;11.754;2023-02-26T18:25:35;97272.13;;;-0.18;72.18
21185;BME280;18176;49.502;11.754;2023-02-26T18:29:35;97282.66;;;-0.27;72.87
21185;BME280;18176;49.502;11.754;2023-02-26T18:33:36;97281.03;;;-0.28;73.21
21185;BME280;18176;49.502;11.754;2023-02-26T18:37:40;97281.13;;;-0.38;73.67
21185;BME280;18176;49.502;11.754;2023-02-26T18:41:42;97253.25;;;-0.71;74.29
21185;BME280;18176;49.502;11.754;2023-02-26T18:45:44;97288.47;;;-0.59;75.12
21185;BME280;18176;49.502;11.754;2023-02-26T18:49:47;97295.78;;;-0.62;75.62
21185;BME280;18176;49.502;11.754;2023-02-26T18:53:50;97302.00;;;-0.73;75.73
21185;BME280;18176;49.502;11.754;2023-02-26T18:57:52;97308.03;;;-0.73;75.54
21185;BME280;18176;49.502;11.754;2023-02-26T19:01:54;97294.28;;;-0.83;75.58
21185;BME280;18176;49.502;11.754;2023-02-26T19:05:56;97319.63;;;-0.85;75.58
21185;BME280;18176;49.502;11.754;2023-02-26T19:09:59;97332.28;;;-0.90;75.46
21185;BME280;18176;49.502;11.754;2023-02-26T19:14:01;97336.06;;;-1.02;75.74
21185;BME280;18176;49.502;11.754;2023-02-26T19:18:02;97346.09;;;-1.07;75.94
21185;BME280;18176;49.502;11.754;2023-02-26T19:22:03;97357.66;;;-1.19;76.58
21185;BME280;18176;49.502;11.754;2023-02-26T19:26:07;97370.66;;;-1.19;76.26
21185;BME280;18176;49.502;11.754;2023-02-26T19:30:10;97361.97;;;-1.27;76.43
21185;BME280;18176;49.502;11.754;2023-02-26T19:34:11;97354.16;;;-1.45;76.54
21185;BME280;18176;49.502;11.754;2023-02-26T19:38:12;97365.72;;;-1.39;76.52
21185;BME280;18176;49.502;11.754;2023-02-26T19:42:16;97368.38;;;-1.49;76.92
21185;BME280;18176;49.502;11.754;2023-02-26T19:46:17;97385.50;;;-1.56;77.25
21185;BME280;18176;49.502;11.754;2023-02-26T19:50:17;97375.97;;;-1.65;77.69
21185;BME280;18176;49.502;11.754;2023-02-26T19:54:21;97396.50;;;-1.72;78.19
21185;BME280;18176;49.502;11.754;2023-02-26T19:58:25;97393.25;;;-1.83;78.86
21185;BME280;18176;49.502;11.754;2023-02-26T20:02:27;97391.31;;;-1.72;78.28
21185;BME280;18176;49.502;11.754;2023-02-26T20:06:28;97401.38;;;-1.59;77.55
21185;BME280;18176;49.502;11.754;2023-02-26T20:10:28;97396.22;;;-1.69;77.82
21185;BME280;18176;49.502;11.754;2023-02-26T20:14:32;97415.81;;;-1.47;77.36
21185;BME280;18176;49.502;11.754;2023-02-26T20:18:34;97413.13;;;-1.55;77.58
21185;BME280;18176;49.502;11.754;2023-02-26T20:22:34;97422.38;;;-1.43;77.23
21185;BME280;18176;49.502;11.754;2023-02-26T20:26:35;97421.78;;;-1.37;76.87
21185;BME280;18176;49.502;11.754;2023-02-26T20:30:39;97422.84;;;-1.30;76.11
21185;BME280;18176;49.502;11.754;2023-02-26T20:34:40;97421.41;;;-1.15;75.16
21185;BME280;18176;49.502;11.754;2023-02-26T20:38:41;97434.13;;;-1.12;75.29
21185;BME280;18176;49.502;11.754;2023-02-26T20:42:43;97436.63;;;-0.93;74.89
21185;BME280;18176;49.502;11.754;2023-02-26T20:46:47;97441.22;;;-0.87;73.98
21185;BME280;18176;49.502;11.754;2023-02-26T20:50:49;97433.72;;;-0.90;74.03
21185;BME280;18176;49.502;11.754;2023-02-26T20:54:54;97446.25;;;-1.03;74.45
21185;BME280;18176;49.502;11.754;2023-02-26T20:58:57;97425.03;;;-1.25;75.05
21185;BME280;18176;49.502;11.754;2023-02-26T21:03:01;97439.13;;;-1.28;75.69
21185;BME280;18176;49.502;11.754;2023-02-26T21:07:02;97431.41;;;-1.47;76.19
21185;BME280;18176;49.502;11.754;2023-02-26T21:11:18;97443.41;;;-1.36;76.29
21185;BME280;18176;49.502;11.754;2023-02-26T21:15:23;97436.50;;;-1.55;76.78
21185;BME280;18176;49.502;11.754;2023-02-26T21:19:26;97449.22;;;-1.52;77.44
21185;BME280;18176;49.502;11.754;2023-02-26T21:23:27;97420.97;;;-1.74;77.19
21185;BME280;18176;49.502;11.754;2023-02-26T21:27:28;97461.25;;;-1.51;77.25
21185;BME280;18176;49.502;11.754;2023-02-26T21:31:29;97444.81;;;-1.52;77.21
21185;BME280;18176;49.502;11.754;2023-02-26T21:35:32;97464.81;;;-1.52;77.50
21185;BME280;18176;49.502;11.754;2023-02-26T21:39:34;97462.78;;;-1.68;77.87
21185;BME280;18176;49.502;11.754;2023-02-26T21:43:35;97457.50;;;-1.85;78.50
21185;BME280;18176;49.502;11.754;2023-02-26T21:47:37;97461.88;;;-1.95;79.61